Amsterdam, NY

5:01 PM EST on February 27, 2015 (GMT -0500)
East End @ Kirk Douglas House | Change Station
CLOSE
Current Station
Personal Weather Station
Location: Amsterdam, NY
Elevation: 276 ft
Nearby Weather Stations

Elev 276 ft 42.93 °N, 74.18 °W | Updated 5 seconds ago

Clear
Clear
19.5 °F
Feels Like 20 °F
N
3.0
Wind Variable Wind from NW
Gusts 4.0 mph

Today
High -- | Low -- °F
--% Chance of Precip.
Yesterday
High -- | Low -- °F
Precip. -- in
6:36 AM 5:43 PM
Waxing Gibbous, 72% visible
Pressure 30.42 in
Visibility 10.0 miles
Clouds Clear
Windchill 20 °F
Dew Point 4 °F
Humidity 49%
Rainfall 0.00 in
Snow Depth Not available.
UV 0 out of 12
Pollen .40 out of 12
Air Quality Not available.
Flu Activity Not available.
METAR KSCH 272150Z 28014G21KT 10SM CLR M07/M18 A3042

More Conditions Fewer Conditions

Pressure 30.42 in
Visibility 10.0 miles
Clouds Clear
Windchill 20 °F
Dew Point 4 °F
Humidity 49%
Rainfall 0.00 in
Snow Depth Not available.
UV 0 out of 12
Pollen .40 out of 12
Air Quality Not available.
Flu Activity Not available.
METAR KSCH 272150Z 28014G21KT 10SM CLR M07/M18 A3042

More Conditions Fewer Conditions

10-Day Weather Forecast

Almanac

Astronomy

Feb. 27, 2015 Rise Set
Actual Time
Civil Twilight
Nautical Twilight
Astronomical Twilight
Moon
Length of Visible Light
Length of Day
Tomorrow will be .
, % of the Moon is Illuminated

Today's Extremes

State Highs State Lows

Community

WunderPhotos

Upload Photos

1,800,848 photos uploaded!

WunderBlogs® & News

Nearby

Air Quality

  Air Quality AQ Index Pollutant
Not available.

Snow Depth

Station Depth Elevation

Earthquake Activity

City Distance Mag. Time & Date
Minimum magnitude displayed is 2.5.

Coastal Water Temperatures

Place Temperature

Nearby Weather Stations